sensor_id;sensor_type;location;lat;lon;timestamp;P1;durP1;ratioP1;P2;durP2;ratioP2
819;SDS011;392;48.838;2.322;2023-11-18T00:01:06;11.73;;;10.53;;
819;SDS011;392;48.838;2.322;2023-11-18T00:03:34;12.03;;;10.67;;
819;SDS011;392;48.838;2.322;2023-11-18T00:06:01;12.57;;;10.80;;
819;SDS011;392;48.838;2.322;2023-11-18T00:08:28;11.30;;;10.20;;
819;SDS011;392;48.838;2.322;2023-11-18T00:10:56;17.03;;;15.07;;
819;SDS011;392;48.838;2.322;2023-11-18T00:13:24;15.90;;;12.20;;
819;SDS011;392;48.838;2.322;2023-11-18T00:15:53;14.80;;;11.03;;
819;SDS011;392;48.838;2.322;2023-11-18T00:18:20;13.83;;;10.57;;
819;SDS011;392;48.838;2.322;2023-11-18T00:20:48;13.97;;;12.57;;
819;SDS011;392;48.838;2.322;2023-11-18T00:23:16;18.57;;;14.20;;
819;SDS011;392;48.838;2.322;2023-11-18T00:25:44;19.70;;;15.00;;
819;SDS011;392;48.838;2.322;2023-11-18T00:28:11;13.87;;;10.60;;
819;SDS011;392;48.838;2.322;2023-11-18T00:30:40;28.20;;;22.00;;
819;SDS011;392;48.838;2.322;2023-11-18T00:33:07;14.33;;;12.93;;
819;SDS011;392;48.838;2.322;2023-11-18T00:35:34;15.80;;;14.20;;
819;SDS011;392;48.838;2.322;2023-11-18T00:38:01;12.93;;;11.23;;
819;SDS011;392;48.838;2.322;2023-11-18T00:40:28;12.73;;;11.33;;
819;SDS011;392;48.838;2.322;2023-11-18T00:42:55;11.50;;;10.30;;
819;SDS011;392;48.838;2.322;2023-11-18T00:45:23;10.73;;;9.53;;
819;SDS011;392;48.838;2.322;2023-11-18T00:47:51;12.20;;;10.00;;
819;SDS011;392;48.838;2.322;2023-11-18T00:50:19;12.07;;;9.60;;
819;SDS011;392;48.838;2.322;2023-11-18T00:52:47;12.60;;;11.53;;
819;SDS011;392;48.838;2.322;2023-11-18T00:55:15;12.87;;;10.53;;
819;SDS011;392;48.838;2.322;2023-11-18T00:57:43;14.50;;;11.27;;
819;SDS011;392;48.838;2.322;2023-11-18T01:00:11;14.63;;;11.57;;
819;SDS011;392;48.838;2.322;2023-11-18T01:02:41;12.13;;;10.87;;
819;SDS011;392;48.838;2.322;2023-11-18T01:05:10;12.83;;;11.50;;
819;SDS011;392;48.838;2.322;2023-11-18T01:07:38;16.27;;;11.83;;
819;SDS011;392;48.838;2.322;2023-11-18T01:10:06;14.70;;;12.80;;
819;SDS011;392;48.838;2.322;2023-11-18T01:12:35;13.00;;;11.83;;
819;SDS011;392;48.838;2.322;2023-11-18T01:15:03;13.50;;;9.90;;
819;SDS011;392;48.838;2.322;2023-11-18T01:17:32;11.90;;;9.87;;
819;SDS011;392;48.838;2.322;2023-11-18T01:19:59;11.90;;;10.23;;
819;SDS011;392;48.838;2.322;2023-11-18T01:22:38;11.37;;;10.17;;
819;SDS011;392;48.838;2.322;2023-11-18T01:25:07;10.10;;;9.00;;
819;SDS011;392;48.838;2.322;2023-11-18T01:27:35;11.37;;;8.93;;
819;SDS011;392;48.838;2.322;2023-11-18T01:30:02;10.27;;;9.20;;
819;SDS011;392;48.838;2.322;2023-11-18T01:32:30;10.27;;;9.23;;
819;SDS011;392;48.838;2.322;2023-11-18T01:34:57;9.23;;;8.43;;
819;SDS011;392;48.838;2.322;2023-11-18T01:37:25;9.20;;;8.00;;
819;SDS011;392;48.838;2.322;2023-11-18T01:39:53;9.13;;;8.33;;
819;SDS011;392;48.838;2.322;2023-11-18T01:42:20;8.90;;;8.00;;
819;SDS011;392;48.838;2.322;2023-11-18T01:44:47;10.17;;;8.47;;
819;SDS011;392;48.838;2.322;2023-11-18T01:47:14;10.27;;;9.00;;
819;SDS011;392;48.838;2.322;2023-11-18T01:49:42;10.33;;;8.07;;
819;SDS011;392;48.838;2.322;2023-11-18T01:52:10;8.40;;;7.50;;
819;SDS011;392;48.838;2.322;2023-11-18T01:54:37;8.37;;;7.57;;
819;SDS011;392;48.838;2.322;2023-11-18T01:57:07;11.17;;;9.70;;
819;SDS011;392;48.838;2.322;2023-11-18T01:59:34;10.10;;;7.67;;
819;SDS011;392;48.838;2.322;2023-11-18T02:02:03;8.23;;;7.43;;
819;SDS011;392;48.838;2.322;2023-11-18T02:04:31;11.37;;;9.90;;
819;SDS011;392;48.838;2.322;2023-11-18T02:06:58;8.67;;;7.23;;
819;SDS011;392;48.838;2.322;2023-11-18T02:09:29;9.60;;;8.30;;
819;SDS011;392;48.838;2.322;2023-11-18T02:11:59;10.93;;;7.97;;
819;SDS011;392;48.838;2.322;2023-11-18T02:14:38;8.90;;;7.90;;
819;SDS011;392;48.838;2.322;2023-11-18T02:17:07;8.13;;;7.10;;
819;SDS011;392;48.838;2.322;2023-11-18T02:19:37;9.93;;;8.90;;
819;SDS011;392;48.838;2.322;2023-11-18T02:22:06;10.30;;;9.30;;
819;SDS011;392;48.838;2.322;2023-11-18T02:24:36;10.70;;;8.13;;
819;SDS011;392;48.838;2.322;2023-11-18T02:27:07;10.87;;;9.80;;
819;SDS011;392;48.838;2.322;2023-11-18T02:29:37;10.40;;;8.50;;
819;SDS011;392;48.838;2.322;2023-11-18T02:32:09;8.47;;;7.40;;
819;SDS011;392;48.838;2.322;2023-11-18T02:34:49;11.40;;;9.43;;
819;SDS011;392;48.838;2.322;2023-11-18T02:37:22;10.43;;;9.43;;
819;SDS011;392;48.838;2.322;2023-11-18T02:39:52;10.63;;;7.30;;
819;SDS011;392;48.838;2.322;2023-11-18T02:42:26;9.80;;;7.40;;
819;SDS011;392;48.838;2.322;2023-11-18T02:44:54;9.00;;;7.23;;
819;SDS011;392;48.838;2.322;2023-11-18T02:47:25;9.47;;;7.40;;
819;SDS011;392;48.838;2.322;2023-11-18T02:49:56;9.13;;;8.23;;
819;SDS011;392;48.838;2.322;2023-11-18T02:52:30;9.53;;;8.67;;
819;SDS011;392;48.838;2.322;2023-11-18T02:54:58;8.13;;;7.30;;
819;SDS011;392;48.838;2.322;2023-11-18T02:57:27;9.93;;;7.03;;
819;SDS011;392;48.838;2.322;2023-11-18T02:59:54;9.83;;;8.90;;
819;SDS011;392;48.838;2.322;2023-11-18T03:02:21;9.23;;;7.77;;
819;SDS011;392;48.838;2.322;2023-11-18T03:04:48;9.60;;;8.80;;
819;SDS011;392;48.838;2.322;2023-11-18T03:07:15;10.50;;;7.27;;
819;SDS011;392;48.838;2.322;2023-11-18T03:09:42;10.20;;;9.20;;
819;SDS011;392;48.838;2.322;2023-11-18T03:12:12;8.20;;;7.20;;
819;SDS011;392;48.838;2.322;2023-11-18T03:14:40;8.10;;;7.30;;
819;SDS011;392;48.838;2.322;2023-11-18T03:17:07;10.10;;;7.93;;
819;SDS011;392;48.838;2.322;2023-11-18T03:19:35;9.60;;;7.20;;
819;SDS011;392;48.838;2.322;2023-11-18T03:22:03;9.10;;;7.30;;
819;SDS011;392;48.838;2.322;2023-11-18T03:24:30;12.63;;;8.90;;
819;SDS011;392;48.838;2.322;2023-11-18T03:26:57;7.80;;;6.77;;
819;SDS011;392;48.838;2.322;2023-11-18T03:29:25;7.57;;;6.73;;
819;SDS011;392;48.838;2.322;2023-11-18T03:31:53;8.97;;;8.17;;
819;SDS011;392;48.838;2.322;2023-11-18T03:34:20;7.13;;;6.43;;
819;SDS011;392;48.838;2.322;2023-11-18T03:36:48;7.40;;;6.73;;
819;SDS011;392;48.838;2.322;2023-11-18T03:39:16;6.60;;;5.90;;
819;SDS011;392;48.838;2.322;2023-11-18T03:41:43;6.80;;;6.20;;
819;SDS011;392;48.838;2.322;2023-11-18T03:44:11;6.13;;;5.53;;
819;SDS011;392;48.838;2.322;2023-11-18T03:46:37;7.80;;;7.10;;
819;SDS011;392;48.838;2.322;2023-11-18T03:49:07;6.70;;;6.10;;
819;SDS011;392;48.838;2.322;2023-11-18T03:51:35;6.27;;;5.43;;
819;SDS011;392;48.838;2.322;2023-11-18T03:54:03;6.53;;;5.87;;
819;SDS011;392;48.838;2.322;2023-11-18T03:56:33;7.77;;;6.80;;
819;SDS011;392;48.838;2.322;2023-11-18T03:59:01;9.07;;;6.30;;
819;SDS011;392;48.838;2.322;2023-11-18T04:01:29;6.63;;;5.93;;
819;SDS011;392;48.838;2.322;2023-11-18T04:03:57;8.83;;;6.80;;
819;SDS011;392;48.838;2.322;2023-11-18T04:06:26;6.33;;;5.50;;
819;SDS011;392;48.838;2.322;2023-11-18T04:08:53;7.00;;;6.40;;
819;SDS011;392;48.838;2.322;2023-11-18T04:11:21;6.43;;;5.70;;
819;SDS011;392;48.838;2.322;2023-11-18T04:13:49;6.80;;;6.10;;
819;SDS011;392;48.838;2.322;2023-11-18T04:16:16;5.93;;;5.43;;
819;SDS011;392;48.838;2.322;2023-11-18T04:18:44;7.07;;;6.30;;
819;SDS011;392;48.838;2.322;2023-11-18T04:21:12;7.43;;;6.13;;
819;SDS011;392;48.838;2.322;2023-11-18T04:23:42;8.30;;;5.70;;
819;SDS011;392;48.838;2.322;2023-11-18T04:26:12;5.40;;;4.90;;
819;SDS011;392;48.838;2.322;2023-11-18T04:28:39;5.77;;;5.17;;
819;SDS011;392;48.838;2.322;2023-11-18T04:31:06;7.57;;;5.93;;
819;SDS011;392;48.838;2.322;2023-11-18T04:33:33;6.63;;;6.03;;
819;SDS011;392;48.838;2.322;2023-11-18T04:36:00;7.50;;;5.20;;
819;SDS011;392;48.838;2.322;2023-11-18T04:38:30;6.93;;;6.30;;
819;SDS011;392;48.838;2.322;2023-11-18T04:41:00;8.30;;;7.00;;
819;SDS011;392;48.838;2.322;2023-11-18T04:43:29;6.87;;;6.00;;
819;SDS011;392;48.838;2.322;2023-11-18T04:45:56;5.90;;;5.40;;
819;SDS011;392;48.838;2.322;2023-11-18T04:48:23;7.63;;;5.17;;
819;SDS011;392;48.838;2.322;2023-11-18T04:50:50;6.40;;;5.50;;
819;SDS011;392;48.838;2.322;2023-11-18T04:53:17;8.23;;;5.10;;
819;SDS011;392;48.838;2.322;2023-11-18T04:55:44;7.00;;;5.83;;
819;SDS011;392;48.838;2.322;2023-11-18T04:58:13;7.10;;;6.43;;
819;SDS011;392;48.838;2.322;2023-11-18T05:00:41;7.50;;;6.80;;
819;SDS011;392;48.838;2.322;2023-11-18T05:03:08;6.20;;;5.60;;
819;SDS011;392;48.838;2.322;2023-11-18T05:05:35;5.40;;;4.90;;
819;SDS011;392;48.838;2.322;2023-11-18T05:08:04;5.47;;;4.97;;
819;SDS011;392;48.838;2.322;2023-11-18T05:10:33;7.37;;;5.20;;
819;SDS011;392;48.838;2.322;2023-11-18T05:13:01;7.90;;;6.90;;
819;SDS011;392;48.838;2.322;2023-11-18T05:15:30;6.47;;;5.33;;
819;SDS011;392;48.838;2.322;2023-11-18T05:17:57;6.00;;;5.40;;
819;SDS011;392;48.838;2.322;2023-11-18T05:20:24;7.33;;;6.60;;
819;SDS011;392;48.838;2.322;2023-11-18T05:22:53;6.10;;;5.50;;
819;SDS011;392;48.838;2.322;2023-11-18T05:25:20;7.50;;;6.83;;
819;SDS011;392;48.838;2.322;2023-11-18T05:27:47;7.27;;;5.10;;
819;SDS011;392;48.838;2.322;2023-11-18T05:30:14;7.97;;;7.17;;
819;SDS011;392;48.838;2.322;2023-11-18T05:32:44;5.73;;;4.87;;
819;SDS011;392;48.838;2.322;2023-11-18T05:35:11;5.60;;;5.10;;
819;SDS011;392;48.838;2.322;2023-11-18T05:37:38;6.43;;;5.13;;
819;SDS011;392;48.838;2.322;2023-11-18T05:40:06;7.03;;;4.70;;
819;SDS011;392;48.838;2.322;2023-11-18T05:42:37;7.53;;;5.10;;
819;SDS011;392;48.838;2.322;2023-11-18T05:45:07;5.80;;;5.37;;
819;SDS011;392;48.838;2.322;2023-11-18T05:47:42;7.30;;;5.10;;
819;SDS011;392;48.838;2.322;2023-11-18T05:50:11;5.83;;;4.10;;
819;SDS011;392;48.838;2.322;2023-11-18T05:52:40;4.33;;;3.57;;
819;SDS011;392;48.838;2.322;2023-11-18T05:55:07;4.40;;;3.60;;
819;SDS011;392;48.838;2.322;2023-11-18T05:57:35;4.10;;;3.73;;
819;SDS011;392;48.838;2.322;2023-11-18T06:00:02;5.60;;;3.77;;
819;SDS011;392;48.838;2.322;2023-11-18T06:02:37;4.97;;;3.83;;
819;SDS011;392;48.838;2.322;2023-11-18T06:05:07;4.90;;;3.80;;
819;SDS011;392;48.838;2.322;2023-11-18T06:07:37;4.93;;;4.50;;
819;SDS011;392;48.838;2.322;2023-11-18T06:10:05;5.37;;;3.50;;
819;SDS011;392;48.838;2.322;2023-11-18T06:12:34;5.63;;;4.07;;
819;SDS011;392;48.838;2.322;2023-11-18T06:15:02;4.73;;;4.20;;
819;SDS011;392;48.838;2.322;2023-11-18T06:17:30;4.30;;;3.87;;
819;SDS011;392;48.838;2.322;2023-11-18T06:19:58;4.23;;;3.87;;
819;SDS011;392;48.838;2.322;2023-11-18T06:22:26;8.50;;;3.60;;
819;SDS011;392;48.838;2.322;2023-11-18T06:24:53;4.97;;;4.00;;
819;SDS011;392;48.838;2.322;2023-11-18T06:27:21;4.43;;;4.03;;
819;SDS011;392;48.838;2.322;2023-11-18T06:29:49;4.83;;;4.37;;
819;SDS011;392;48.838;2.322;2023-11-18T06:32:19;5.33;;;4.20;;
819;SDS011;392;48.838;2.322;2023-11-18T06:34:47;4.70;;;4.30;;
819;SDS011;392;48.838;2.322;2023-11-18T06:37:15;5.60;;;4.90;;
819;SDS011;392;48.838;2.322;2023-11-18T06:39:43;5.53;;;4.70;;
819;SDS011;392;48.838;2.322;2023-11-18T06:42:12;4.40;;;4.00;;
819;SDS011;392;48.838;2.322;2023-11-18T06:44:40;5.63;;;4.73;;
819;SDS011;392;48.838;2.322;2023-11-18T06:47:07;5.23;;;4.40;;
819;SDS011;392;48.838;2.322;2023-11-18T06:49:34;5.57;;;3.90;;
819;SDS011;392;48.838;2.322;2023-11-18T06:52:02;5.77;;;3.60;;
819;SDS011;392;48.838;2.322;2023-11-18T06:54:30;3.37;;;3.13;;
819;SDS011;392;48.838;2.322;2023-11-18T06:56:59;5.47;;;3.97;;
819;SDS011;392;48.838;2.322;2023-11-18T06:59:26;5.93;;;3.67;;
819;SDS011;392;48.838;2.322;2023-11-18T07:01:54;5.10;;;4.07;;
819;SDS011;392;48.838;2.322;2023-11-18T07:04:21;3.70;;;3.10;;
819;SDS011;392;48.838;2.322;2023-11-18T07:06:49;4.93;;;3.87;;
819;SDS011;392;48.838;2.322;2023-11-18T07:09:16;4.20;;;3.80;;
819;SDS011;392;48.838;2.322;2023-11-18T07:11:46;4.57;;;3.83;;
819;SDS011;392;48.838;2.322;2023-11-18T07:14:14;7.00;;;3.50;;
819;SDS011;392;48.838;2.322;2023-11-18T07:16:42;5.80;;;3.73;;
819;SDS011;392;48.838;2.322;2023-11-18T07:19:10;3.57;;;3.00;;
819;SDS011;392;48.838;2.322;2023-11-18T07:21:45;7.77;;;4.40;;
819;SDS011;392;48.838;2.322;2023-11-18T07:24:12;4.20;;;3.80;;
819;SDS011;392;48.838;2.322;2023-11-18T07:26:39;4.70;;;3.10;;
819;SDS011;392;48.838;2.322;2023-11-18T07:29:06;3.27;;;2.93;;
819;SDS011;392;48.838;2.322;2023-11-18T07:31:35;5.30;;;4.80;;
819;SDS011;392;48.838;2.322;2023-11-18T07:34:02;4.00;;;3.63;;
819;SDS011;392;48.838;2.322;2023-11-18T07:36:30;4.00;;;3.70;;
819;SDS011;392;48.838;2.322;2023-11-18T07:38:58;3.53;;;3.10;;
819;SDS011;392;48.838;2.322;2023-11-18T07:41:26;3.53;;;3.23;;
819;SDS011;392;48.838;2.322;2023-11-18T07:43:53;3.73;;;3.43;;
819;SDS011;392;48.838;2.322;2023-11-18T07:46:21;4.07;;;3.80;;
819;SDS011;392;48.838;2.322;2023-11-18T07:48:49;4.37;;;3.93;;
819;SDS011;392;48.838;2.322;2023-11-18T07:51:18;3.90;;;3.70;;
819;SDS011;392;48.838;2.322;2023-11-18T07:53:46;3.73;;;3.47;;
819;SDS011;392;48.838;2.322;2023-11-18T07:56:14;3.63;;;3.43;;
819;SDS011;392;48.838;2.322;2023-11-18T07:58:41;3.30;;;3.10;;
819;SDS011;392;48.838;2.322;2023-11-18T08:01:11;3.47;;;3.17;;
819;SDS011;392;48.838;2.322;2023-11-18T08:03:38;4.23;;;3.90;;
819;SDS011;392;48.838;2.322;2023-11-18T08:06:08;3.80;;;3.43;;
819;SDS011;392;48.838;2.322;2023-11-18T08:08:37;3.47;;;3.27;;
819;SDS011;392;48.838;2.322;2023-11-18T08:11:05;3.60;;;3.30;;
819;SDS011;392;48.838;2.322;2023-11-18T08:13:32;4.37;;;4.07;;
819;SDS011;392;48.838;2.322;2023-11-18T08:16:00;3.10;;;3.00;;
819;SDS011;392;48.838;2.322;2023-11-18T08:18:27;3.70;;;3.40;;
819;SDS011;392;48.838;2.322;2023-11-18T08:20:56;3.50;;;3.30;;
819;SDS011;392;48.838;2.322;2023-11-18T08:23:26;3.50;;;3.30;;
819;SDS011;392;48.838;2.322;2023-11-18T08:25:54;3.40;;;3.20;;
819;SDS011;392;48.838;2.322;2023-11-18T08:28:21;3.70;;;3.40;;
819;SDS011;392;48.838;2.322;2023-11-18T08:30:48;2.80;;;2.60;;
819;SDS011;392;48.838;2.322;2023-11-18T08:33:18;3.37;;;3.17;;
819;SDS011;392;48.838;2.322;2023-11-18T08:35:46;4.20;;;3.40;;
819;SDS011;392;48.838;2.322;2023-11-18T08:38:13;3.23;;;3.13;;
819;SDS011;392;48.838;2.322;2023-11-18T08:40:41;2.80;;;2.60;;
819;SDS011;392;48.838;2.322;2023-11-18T08:43:10;3.63;;;3.33;;
819;SDS011;392;48.838;2.322;2023-11-18T08:45:38;3.77;;;3.57;;
819;SDS011;392;48.838;2.322;2023-11-18T08:48:06;4.17;;;3.47;;
819;SDS011;392;48.838;2.322;2023-11-18T08:50:34;3.90;;;3.60;;
819;SDS011;392;48.838;2.322;2023-11-18T08:53:05;4.20;;;3.90;;
819;SDS011;392;48.838;2.322;2023-11-18T08:55:34;3.00;;;2.73;;
819;SDS011;392;48.838;2.322;2023-11-18T08:58:07;3.73;;;3.53;;
819;SDS011;392;48.838;2.322;2023-11-18T09:00:44;4.10;;;3.80;;
819;SDS011;392;48.838;2.322;2023-11-18T09:03:14;6.67;;;4.60;;
819;SDS011;392;48.838;2.322;2023-11-18T09:05:52;2.90;;;2.70;;
819;SDS011;392;48.838;2.322;2023-11-18T09:08:23;3.57;;;3.30;;
819;SDS011;392;48.838;2.322;2023-11-18T09:10:52;2.97;;;2.70;;
819;SDS011;392;48.838;2.322;2023-11-18T09:13:22;4.00;;;3.70;;
819;SDS011;392;48.838;2.322;2023-11-18T09:15:55;4.73;;;3.03;;
819;SDS011;392;48.838;2.322;2023-11-18T09:18:23;3.30;;;3.00;;
819;SDS011;392;48.838;2.322;2023-11-18T09:20:51;3.77;;;2.60;;
819;SDS011;392;48.838;2.322;2023-11-18T09:23:20;4.67;;;3.40;;
819;SDS011;392;48.838;2.322;2023-11-18T09:25:50;3.17;;;2.90;;
819;SDS011;392;48.838;2.322;2023-11-18T09:28:18;3.50;;;3.30;;
819;SDS011;392;48.838;2.322;2023-11-18T09:30:47;4.13;;;3.93;;
819;SDS011;392;48.838;2.322;2023-11-18T09:33:19;3.40;;;3.10;;
819;SDS011;392;48.838;2.322;2023-11-18T09:35:58;4.00;;;3.70;;
819;SDS011;392;48.838;2.322;2023-11-18T09:38:26;2.90;;;2.70;;
819;SDS011;392;48.838;2.322;2023-11-18T09:40:54;3.63;;;3.43;;
819;SDS011;392;48.838;2.322;2023-11-18T09:43:23;4.37;;;3.97;;
819;SDS011;392;48.838;2.322;2023-11-18T09:45:56;3.80;;;3.50;;
819;SDS011;392;48.838;2.322;2023-11-18T09:48:30;3.60;;;3.30;;
819;SDS011;392;48.838;2.322;2023-11-18T09:51:06;2.63;;;2.43;;
819;SDS011;392;48.838;2.322;2023-11-18T09:53:35;3.40;;;3.10;;
819;SDS011;392;48.838;2.322;2023-11-18T09:56:07;3.80;;;3.60;;
819;SDS011;392;48.838;2.322;2023-11-18T09:58:45;3.90;;;3.60;;
819;SDS011;392;48.838;2.322;2023-11-18T10:01:26;3.07;;;2.70;;
819;SDS011;392;48.838;2.322;2023-11-18T10:03:58;2.43;;;2.23;;
819;SDS011;392;48.838;2.322;2023-11-18T10:06:31;3.40;;;3.17;;
819;SDS011;392;48.838;2.322;2023-11-18T10:09:02;2.50;;;2.40;;
819;SDS011;392;48.838;2.322;2023-11-18T10:11:41;2.43;;;2.30;;
819;SDS011;392;48.838;2.322;2023-11-18T10:14:12;3.30;;;3.10;;
819;SDS011;392;48.838;2.322;2023-11-18T10:16:43;2.57;;;2.47;;
819;SDS011;392;48.838;2.322;2023-11-18T10:19:19;2.83;;;2.60;;
819;SDS011;392;48.838;2.322;2023-11-18T10:21:46;2.90;;;2.70;;
819;SDS011;392;48.838;2.322;2023-11-18T10:24:15;2.60;;;2.50;;
819;SDS011;392;48.838;2.322;2023-11-18T10:26:44;3.30;;;3.00;;
819;SDS011;392;48.838;2.322;2023-11-18T10:29:20;2.63;;;2.43;;
819;SDS011;392;48.838;2.322;2023-11-18T10:31:50;2.87;;;2.67;;
819;SDS011;392;48.838;2.322;2023-11-18T10:34:34;2.70;;;2.50;;
819;SDS011;392;48.838;2.322;2023-11-18T10:37:03;2.57;;;2.47;;
819;SDS011;392;48.838;2.322;2023-11-18T10:39:32;3.00;;;2.80;;
819;SDS011;392;48.838;2.322;2023-11-18T10:42:00;4.70;;;3.20;;
819;SDS011;392;48.838;2.322;2023-11-18T10:44:28;3.03;;;2.77;;
819;SDS011;392;48.838;2.322;2023-11-18T10:46:56;3.40;;;3.10;;
819;SDS011;392;48.838;2.322;2023-11-18T10:49:26;2.53;;;2.43;;
819;SDS011;392;48.838;2.322;2023-11-18T10:51:55;4.40;;;3.03;;
819;SDS011;392;48.838;2.322;2023-11-18T10:54:23;4.10;;;3.40;;
819;SDS011;392;48.838;2.322;2023-11-18T10:56:52;3.83;;;2.70;;
819;SDS011;392;48.838;2.322;2023-11-18T10:59:21;3.20;;;2.93;;
819;SDS011;392;48.838;2.322;2023-11-18T11:01:50;2.47;;;2.30;;
819;SDS011;392;48.838;2.322;2023-11-18T11:04:19;2.37;;;2.13;;
819;SDS011;392;48.838;2.322;2023-11-18T11:06:47;2.50;;;2.17;;
819;SDS011;392;48.838;2.322;2023-11-18T11:09:18;2.97;;;2.77;;
819;SDS011;392;48.838;2.322;2023-11-18T11:11:52;2.40;;;2.30;;
819;SDS011;392;48.838;2.322;2023-11-18T11:14:22;3.80;;;3.50;;
819;SDS011;392;48.838;2.322;2023-11-18T11:16:58;3.73;;;2.97;;
819;SDS011;392;48.838;2.322;2023-11-18T11:19:38;3.27;;;2.87;;
819;SDS011;392;48.838;2.322;2023-11-18T11:22:22;3.30;;;3.00;;
819;SDS011;392;48.838;2.322;2023-11-18T11:25:03;3.23;;;2.70;;
819;SDS011;392;48.838;2.322;2023-11-18T11:27:50;2.67;;;2.47;;
819;SDS011;392;48.838;2.322;2023-11-18T11:30:28;5.27;;;3.93;;
819;SDS011;392;48.838;2.322;2023-11-18T11:33:00;5.10;;;3.47;;
819;SDS011;392;48.838;2.322;2023-11-18T11:35:40;5.07;;;3.57;;
819;SDS011;392;48.838;2.322;2023-11-18T11:38:11;4.50;;;4.10;;
819;SDS011;392;48.838;2.322;2023-11-18T11:40:39;3.70;;;3.40;;
819;SDS011;392;48.838;2.322;2023-11-18T11:43:09;4.60;;;2.93;;
819;SDS011;392;48.838;2.322;2023-11-18T11:45:41;3.07;;;2.80;;
819;SDS011;392;48.838;2.322;2023-11-18T11:48:09;3.30;;;3.00;;
819;SDS011;392;48.838;2.322;2023-11-18T11:53:41;5.60;;;4.20;;
819;SDS011;392;48.838;2.322;2023-11-18T11:56:14;4.33;;;3.87;;
819;SDS011;392;48.838;2.322;2023-11-18T11:58:46;3.60;;;3.30;;
819;SDS011;392;48.838;2.322;2023-11-18T12:01:27;2.43;;;2.23;;
819;SDS011;392;48.838;2.322;2023-11-18T12:04:02;4.20;;;3.10;;
819;SDS011;392;48.838;2.322;2023-11-18T12:06:41;3.93;;;3.53;;
819;SDS011;392;48.838;2.322;2023-11-18T12:09:09;2.93;;;2.73;;
819;SDS011;392;48.838;2.322;2023-11-18T12:11:44;3.57;;;3.23;;
819;SDS011;392;48.838;2.322;2023-11-18T12:14:14;3.93;;;3.63;;
819;SDS011;392;48.838;2.322;2023-11-18T12:17:03;4.67;;;3.90;;
819;SDS011;392;48.838;2.322;2023-11-18T12:19:37;4.03;;;3.73;;
819;SDS011;392;48.838;2.322;2023-11-18T12:22:15;3.20;;;3.00;;
819;SDS011;392;48.838;2.322;2023-11-18T12:28:10;3.50;;;3.07;;
819;SDS011;392;48.838;2.322;2023-11-18T12:30:41;3.53;;;3.23;;
819;SDS011;392;48.838;2.322;2023-11-18T12:33:18;3.30;;;3.10;;
819;SDS011;392;48.838;2.322;2023-11-18T12:39:19;4.20;;;3.53;;
819;SDS011;392;48.838;2.322;2023-11-18T12:42:20;3.93;;;3.63;;
819;SDS011;392;48.838;2.322;2023-11-18T12:45:28;5.90;;;3.70;;
819;SDS011;392;48.838;2.322;2023-11-18T12:48:13;3.67;;;3.37;;
819;SDS011;392;48.838;2.322;2023-11-18T12:50:41;4.97;;;3.40;;
819;SDS011;392;48.838;2.322;2023-11-18T12:53:11;3.43;;;3.13;;
819;SDS011;392;48.838;2.322;2023-11-18T12:55:41;4.93;;;3.47;;
819;SDS011;392;48.838;2.322;2023-11-18T12:58:09;2.83;;;2.72;;
819;SDS011;392;48.838;2.322;2023-11-18T13:00:39;3.47;;;3.17;;
819;SDS011;392;48.838;2.322;2023-11-18T13:03:08;3.80;;;3.50;;
819;SDS011;392;48.838;2.322;2023-11-18T13:05:36;4.03;;;3.03;;
819;SDS011;392;48.838;2.322;2023-11-18T13:08:04;2.87;;;2.67;;
819;SDS011;392;48.838;2.322;2023-11-18T13:10:32;3.50;;;3.17;;
819;SDS011;392;48.838;2.322;2023-11-18T13:13:00;4.73;;;3.10;;
819;SDS011;392;48.838;2.322;2023-11-18T13:15:30;3.33;;;2.87;;
819;SDS011;392;48.838;2.322;2023-11-18T13:17:58;4.33;;;3.23;;
819;SDS011;392;48.838;2.322;2023-11-18T13:20:26;3.10;;;2.90;;
819;SDS011;392;48.838;2.322;2023-11-18T13:22:54;2.93;;;2.63;;
819;SDS011;392;48.838;2.322;2023-11-18T13:25:22;2.70;;;2.60;;
819;SDS011;392;48.838;2.322;2023-11-18T13:27:50;2.70;;;2.60;;
819;SDS011;392;48.838;2.322;2023-11-18T13:30:21;2.87;;;2.60;;
819;SDS011;392;48.838;2.322;2023-11-18T13:32:49;4.33;;;4.03;;
819;SDS011;392;48.838;2.322;2023-11-18T13:35:17;3.80;;;3.50;;
819;SDS011;392;48.838;2.322;2023-11-18T13:37:48;4.53;;;4.23;;
819;SDS011;392;48.838;2.322;2023-11-18T13:40:18;3.17;;;2.97;;
819;SDS011;392;48.838;2.322;2023-11-18T13:42:46;6.57;;;5.97;;
819;SDS011;392;48.838;2.322;2023-11-18T13:45:13;7.10;;;6.40;;
819;SDS011;392;48.838;2.322;2023-11-18T13:47:50;3.50;;;3.20;;
819;SDS011;392;48.838;2.322;2023-11-18T13:50:18;4.97;;;4.53;;
819;SDS011;392;48.838;2.322;2023-11-18T13:52:46;4.10;;;3.70;;
819;SDS011;392;48.838;2.322;2023-11-18T13:55:14;2.87;;;2.70;;
819;SDS011;392;48.838;2.322;2023-11-18T13:57:51;4.53;;;4.13;;
819;SDS011;392;48.838;2.322;2023-11-18T14:00:21;5.07;;;4.00;;
819;SDS011;392;48.838;2.322;2023-11-18T14:02:56;7.10;;;3.70;;
819;SDS011;392;48.838;2.322;2023-11-18T14:05:24;4.40;;;4.00;;
819;SDS011;392;48.838;2.322;2023-11-18T14:07:52;4.83;;;4.40;;
819;SDS011;392;48.838;2.322;2023-11-18T14:10:21;3.87;;;3.60;;
819;SDS011;392;48.838;2.322;2023-11-18T14:13:01;8.70;;;6.83;;
819;SDS011;392;48.838;2.322;2023-11-18T14:15:31;3.27;;;2.97;;
819;SDS011;392;48.838;2.322;2023-11-18T14:18:02;6.40;;;5.60;;
819;SDS011;392;48.838;2.322;2023-11-18T14:20:29;3.20;;;2.77;;
819;SDS011;392;48.838;2.322;2023-11-18T14:22:57;5.50;;;5.00;;
819;SDS011;392;48.838;2.322;2023-11-18T14:25:24;5.57;;;5.07;;
819;SDS011;392;48.838;2.322;2023-11-18T14:27:52;3.27;;;2.97;;
819;SDS011;392;48.838;2.322;2023-11-18T14:30:19;4.27;;;3.97;;
819;SDS011;392;48.838;2.322;2023-11-18T14:32:49;3.87;;;3.57;;
819;SDS011;392;48.838;2.322;2023-11-18T14:35:18;4.17;;;3.87;;
819;SDS011;392;48.838;2.322;2023-11-18T14:37:46;3.67;;;3.37;;
819;SDS011;392;48.838;2.322;2023-11-18T14:40:13;3.70;;;3.30;;
819;SDS011;392;48.838;2.322;2023-11-18T14:42:42;6.40;;;5.90;;
819;SDS011;392;48.838;2.322;2023-11-18T14:45:10;10.03;;;9.13;;
819;SDS011;392;48.838;2.322;2023-11-18T14:47:39;5.00;;;4.60;;
819;SDS011;392;48.838;2.322;2023-11-18T14:50:10;5.20;;;4.90;;
819;SDS011;392;48.838;2.322;2023-11-18T14:52:44;4.47;;;4.07;;
819;SDS011;392;48.838;2.322;2023-11-18T14:55:12;5.07;;;4.67;;
819;SDS011;392;48.838;2.322;2023-11-18T14:57:42;3.77;;;3.47;;
819;SDS011;392;48.838;2.322;2023-11-18T15:00:10;4.77;;;4.37;;
819;SDS011;392;48.838;2.322;2023-11-18T15:02:45;5.23;;;4.30;;
819;SDS011;392;48.838;2.322;2023-11-18T15:05:14;4.23;;;3.93;;
819;SDS011;392;48.838;2.322;2023-11-18T15:07:45;4.40;;;4.10;;
819;SDS011;392;48.838;2.322;2023-11-18T15:10:17;3.70;;;3.40;;
819;SDS011;392;48.838;2.322;2023-11-18T15:12:46;3.87;;;3.57;;
819;SDS011;392;48.838;2.322;2023-11-18T15:15:15;4.30;;;4.00;;
819;SDS011;392;48.838;2.322;2023-11-18T15:17:44;8.27;;;7.53;;
819;SDS011;392;48.838;2.322;2023-11-18T15:20:14;5.10;;;4.70;;
819;SDS011;392;48.838;2.322;2023-11-18T15:22:42;9.83;;;9.23;;
819;SDS011;392;48.838;2.322;2023-11-18T15:25:11;5.03;;;4.73;;
819;SDS011;392;48.838;2.322;2023-11-18T15:27:40;3.97;;;3.67;;
819;SDS011;392;48.838;2.322;2023-11-18T15:30:08;4.20;;;3.80;;
819;SDS011;392;48.838;2.322;2023-11-18T15:32:37;4.13;;;3.83;;
819;SDS011;392;48.838;2.322;2023-11-18T15:35:06;4.97;;;4.57;;
819;SDS011;392;48.838;2.322;2023-11-18T15:37:39;10.50;;;9.50;;
819;SDS011;392;48.838;2.322;2023-11-18T15:40:09;3.67;;;3.37;;
819;SDS011;392;48.838;2.322;2023-11-18T15:42:39;3.70;;;3.43;;
819;SDS011;392;48.838;2.322;2023-11-18T15:45:08;5.40;;;4.90;;
819;SDS011;392;48.838;2.322;2023-11-18T15:47:37;4.87;;;4.37;;
819;SDS011;392;48.838;2.322;2023-11-18T15:50:08;3.87;;;3.57;;
819;SDS011;392;48.838;2.322;2023-11-18T15:52:41;4.27;;;3.93;;
819;SDS011;392;48.838;2.322;2023-11-18T15:55:10;6.20;;;4.60;;
819;SDS011;392;48.838;2.322;2023-11-18T15:57:39;6.77;;;6.17;;
819;SDS011;392;48.838;2.322;2023-11-18T16:00:08;11.77;;;10.60;;
819;SDS011;392;48.838;2.322;2023-11-18T16:02:41;3.73;;;3.53;;
819;SDS011;392;48.838;2.322;2023-11-18T16:05:11;8.77;;;6.93;;
819;SDS011;392;48.838;2.322;2023-11-18T16:07:41;5.17;;;4.67;;